createdAt,value
2023-03-30T00:01:58.513Z,96638.19
2023-03-30T00:04:27.443Z,96635.84
2023-03-30T00:06:55.517Z,96629.75
2023-03-30T00:09:23.230Z,96614.66
2023-03-30T00:11:52.293Z,96604.31
2023-03-30T00:14:22.777Z,96611.56
2023-03-30T00:16:50.565Z,96612.91
2023-03-30T00:19:18.386Z,96611.56
2023-03-30T00:21:46.217Z,96618.59
2023-03-30T00:24:13.929Z,96613.03
2023-03-30T00:26:41.678Z,96619.03
2023-03-30T00:29:10.715Z,96610.94
2023-03-30T00:31:38.497Z,96604.38
2023-03-30T00:34:06.245Z,96599.91
2023-03-30T00:36:37.123Z,96598.38
2023-03-30T00:41:34.382Z,96595.13
2023-03-30T00:44:02.828Z,96593.31
2023-03-30T00:46:32.435Z,96601.50
2023-03-30T00:49:01.318Z,96596.78
2023-03-30T00:51:29.781Z,96596.59
2023-03-30T00:53:58.823Z,96594.28
2023-03-30T00:56:28.105Z,96584.31
2023-03-30T00:58:55.944Z,96577.28
2023-03-30T01:01:25.898Z,96552.81
2023-03-30T01:03:55.208Z,96553.63
2023-03-30T01:06:24.344Z,96555.09
2023-03-30T01:08:52.260Z,96560.53
2023-03-30T01:11:19.966Z,96578.53
2023-03-30T01:13:49.980Z,96577.22
2023-03-30T01:16:22.546Z,96579.00
2023-03-30T01:18:55.191Z,96580.03
2023-03-30T01:22:00.343Z,96588.78
2023-03-30T01:25:07.298Z,96589.63
2023-03-30T01:28:00.477Z,96600.75
2023-03-30T01:30:32.832Z,96602.16
2023-03-30T01:33:33.227Z,96587.53
2023-03-30T01:36:18.754Z,96581.06
2023-03-30T01:39:05.990Z,96574.75
2023-03-30T01:41:35.192Z,96580.47
2023-03-30T01:44:04.471Z,96591.84
2023-03-30T01:46:33.889Z,96588.44
2023-03-30T01:49:03.493Z,96603.63
2023-03-30T01:51:33.625Z,96601.59
2023-03-30T01:54:05.479Z,96614.78
2023-03-30T01:56:33.913Z,96621.47
2023-03-30T01:59:03.311Z,96617.41
2023-03-30T02:01:33.275Z,96614.97
2023-03-30T02:04:01.493Z,96610.72
2023-03-30T02:06:30.798Z,96605.25
2023-03-30T02:08:59.352Z,96609.69
2023-03-30T02:11:28.584Z,96602.22
2023-03-30T02:13:58.608Z,96591.88
2023-03-30T02:16:30.190Z,96596.28
2023-03-30T02:18:58.179Z,96589.41
2023-03-30T02:21:26.320Z,96595.00
2023-03-30T02:23:54.453Z,96579.28
2023-03-30T02:26:22.977Z,96574.38
2023-03-30T02:28:52.823Z,96566.69
2023-03-30T02:31:21.499Z,96547.38
2023-03-30T02:34:04.448Z,96549.91
2023-03-30T02:37:01.945Z,96549.50
2023-03-30T02:39:33.851Z,96559.84
2023-03-30T02:42:16.725Z,96542.03
2023-03-30T02:44:46.489Z,96556.25
2023-03-30T02:47:15.763Z,96567.56
2023-03-30T02:49:50.919Z,96572.00
2023-03-30T02:52:24.637Z,96575.41
2023-03-30T02:54:58.250Z,96576.81
2023-03-30T02:57:57.440Z,96574.38
2023-03-30T03:00:46.222Z,96579.06
2023-03-30T03:03:21.366Z,96585.81
2023-03-30T03:05:53.811Z,96586.22
2023-03-30T03:08:30.297Z,96592.69
2023-03-30T03:10:58.458Z,96611.91
2023-03-30T03:13:28.880Z,96604.00
2023-03-30T03:15:58.288Z,96606.03
2023-03-30T03:18:28.747Z,96601.59
2023-03-30T03:20:56.969Z,96602.81
2023-03-30T03:23:24.929Z,96615.38
2023-03-30T03:25:56.002Z,96622.91
2023-03-30T03:28:24.572Z,96621.06
2023-03-30T03:30:58.484Z,96627.56
2023-03-30T03:33:27.120Z,96635.25
2023-03-30T03:36:12.144Z,96650.25
2023-03-30T03:38:46.238Z,96627.97
2023-03-30T03:41:15.620Z,96635.66
2023-03-30T03:43:44.353Z,96647.84
2023-03-30T03:46:13.686Z,96641.16
2023-03-30T03:48:41.990Z,96642.78
2023-03-30T03:51:11.309Z,96640.13
2023-03-30T03:53:39.197Z,96639.72
2023-03-30T03:56:09.866Z,96645.00
2023-03-30T03:58:37.653Z,96643.56
2023-03-30T04:01:05.635Z,96649.25
2023-03-30T04:03:34.961Z,96642.78
2023-03-30T04:06:02.850Z,96646.19
2023-03-30T04:08:30.923Z,96641.75
2023-03-30T04:11:11.916Z,96636.47
2023-03-30T04:13:55.372Z,96646.00
2023-03-30T04:16:43.867Z,96640.13
2023-03-30T04:19:31.499Z,96632.81
2023-03-30T04:22:19.778Z,96646.19
2023-03-30T04:25:25.638Z,96631.81
2023-03-30T04:28:21.936Z,96625.13
2023-03-30T04:31:01.108Z,96628.38
2023-03-30T04:33:53.277Z,96617.03
2023-03-30T04:36:50.684Z,96606.88
2023-03-30T04:39:24.126Z,96593.09
2023-03-30T04:42:14.230Z,96588.22
2023-03-30T04:45:00.369Z,96595.50
2023-03-30T04:47:45.281Z,96594.09
2023-03-30T04:50:25.228Z,96620.03
2023-03-30T04:53:17.689Z,96613.75
2023-03-30T04:56:05.775Z,96611.91
2023-03-30T04:58:46.305Z,96622.84
2023-03-30T05:01:34.503Z,96609.28
2023-03-30T05:04:19.031Z,96603.22
2023-03-30T05:07:09.698Z,96606.84
2023-03-30T05:09:57.333Z,96609.09
2023-03-30T05:12:49.105Z,96615.56
2023-03-30T05:15:35.839Z,96624.50
2023-03-30T05:18:23.883Z,96612.13
2023-03-30T05:21:08.741Z,96627.13
2023-03-30T05:24:01.327Z,96638.06
2023-03-30T05:26:52.570Z,96657.94
2023-03-30T05:29:33.558Z,96662.41
2023-03-30T05:32:19.994Z,96676.81
2023-03-30T05:35:09.242Z,96685.53
2023-03-30T05:37:45.877Z,96663.25
2023-03-30T05:40:43.388Z,96641.31
2023-03-30T05:43:12.598Z,96619.41
2023-03-30T05:45:49.099Z,96599.94
2023-03-30T05:48:32.949Z,96585.97
2023-03-30T05:51:08.446Z,96597.31
2023-03-30T05:53:47.327Z,96600.75
2023-03-30T05:56:45.422Z,96589.38
2023-03-30T05:59:31.792Z,96602.41
2023-03-30T06:02:17.898Z,96608.72
2023-03-30T06:04:47.435Z,96610.53
2023-03-30T06:07:17.917Z,96580.13
2023-03-30T06:09:45.826Z,96548.91
2023-03-30T06:12:22.879Z,96540.78
2023-03-30T06:14:52.325Z,96508.81
2023-03-30T06:17:41.267Z,96497.03
2023-03-30T06:20:12.581Z,96488.44
2023-03-30T06:22:45.039Z,96468.56
2023-03-30T06:25:20.393Z,96459.69
2023-03-30T06:27:48.821Z,96445.13
2023-03-30T06:30:18.200Z,96425.75
2023-03-30T06:32:49.915Z,96405.28
2023-03-30T06:35:22.203Z,96391.69
2023-03-30T06:37:51.919Z,96370.03
2023-03-30T06:40:21.024Z,96347.06
2023-03-30T06:42:51.709Z,96360.47
2023-03-30T06:45:27.907Z,96353.81
2023-03-30T06:47:56.345Z,96346.50
2023-03-30T06:50:24.311Z,96356.03
2023-03-30T06:53:13.903Z,96362.47
2023-03-30T06:55:43.984Z,96352.66
2023-03-30T06:58:17.762Z,96356.38
2023-03-30T07:00:47.234Z,96369.53
2023-03-30T07:03:33.862Z,96370.19
2023-03-30T07:06:16.508Z,96363.44
2023-03-30T07:08:45.821Z,96365.13
2023-03-30T07:11:18.979Z,96361.66
2023-03-30T07:13:47.141Z,96347.28
2023-03-30T07:16:16.312Z,96364.81
2023-03-30T07:18:44.089Z,96370.78
2023-03-30T07:21:12.328Z,96367.09
2023-03-30T07:23:41.974Z,96375.69
2023-03-30T07:30:24.228Z,96384.25
2023-03-30T07:33:01.040Z,96386.47
2023-03-30T07:36:33.201Z,96384.03
2023-03-30T07:39:01.212Z,96403.09
2023-03-30T07:41:31.313Z,96410.22
2023-03-30T07:44:01.520Z,96432.53
2023-03-30T07:46:29.439Z,96435.56
2023-03-30T07:48:59.286Z,96437.38
2023-03-30T07:51:28.449Z,96426.81
2023-03-30T07:54:19.288Z,96416.75
2023-03-30T07:56:59.462Z,96412.63
2023-03-30T07:59:27.786Z,96415.72
2023-03-30T08:02:01.340Z,96413.66
2023-03-30T08:04:43.935Z,96405.16
2023-03-30T08:07:12.921Z,96399.38
2023-03-30T08:09:40.987Z,96418.22
2023-03-30T08:12:08.784Z,96419.47
2023-03-30T08:14:36.547Z,96428.59
2023-03-30T08:17:04.908Z,96444.06
2023-03-30T08:19:32.622Z,96448.19
2023-03-30T08:22:02.275Z,96431.44
2023-03-30T08:24:29.976Z,96450.53
2023-03-30T08:26:57.847Z,96447.75
2023-03-30T08:29:25.680Z,96438.22
2023-03-30T08:31:53.950Z,96453.31
2023-03-30T08:34:21.727Z,96454.63
2023-03-30T08:36:49.468Z,96433.38
2023-03-30T08:39:18.614Z,96412.78
2023-03-30T08:41:53.618Z,96385.25
2023-03-30T08:44:27.439Z,96376.34
2023-03-30T08:46:55.176Z,96353.75
2023-03-30T08:49:22.988Z,96360.56
2023-03-30T08:51:51.930Z,96365.69
2023-03-30T08:54:22.028Z,96374.03
2023-03-30T08:56:57.517Z,96398.56
2023-03-30T08:59:29.192Z,96413.19
2023-03-30T09:01:59.179Z,96437.91
2023-03-30T09:04:29.935Z,96447.41
2023-03-30T09:06:58.656Z,96458.19
2023-03-30T09:09:29.878Z,96474.78
2023-03-30T09:12:01.151Z,96482.50
2023-03-30T09:14:32.840Z,96502.56
2023-03-30T09:17:05.155Z,96520.16
2023-03-30T09:19:34.976Z,96532.72
2023-03-30T09:22:03.729Z,96539.63
2023-03-30T09:24:33.401Z,96552.00
2023-03-30T09:27:03.476Z,96546.50
2023-03-30T09:29:32.611Z,96550.34
2023-03-30T09:32:05.861Z,96552.38
2023-03-30T09:34:36.955Z,96551.16
2023-03-30T09:37:21.747Z,96510.84
2023-03-30T09:39:50.410Z,96521.19
2023-03-30T09:42:22.860Z,96529.09
2023-03-30T09:44:52.796Z,96539.19
2023-03-30T09:47:25.471Z,96561.50
2023-03-30T09:49:57.964Z,96590.06
2023-03-30T09:52:27.814Z,96607.91
2023-03-30T09:54:55.539Z,96622.50
2023-03-30T09:57:26.248Z,96610.53
2023-03-30T09:59:55.840Z,96609.75
2023-03-30T10:02:25.769Z,96610.75
2023-03-30T10:05:00.305Z,96616.63
2023-03-30T10:07:30.886Z,96775.47
2023-03-30T10:10:00.173Z,96778.53
2023-03-30T10:12:28.004Z,96774.47
2023-03-30T10:14:56.792Z,96784.84
2023-03-30T10:17:25.750Z,96809.56
2023-03-30T10:20:03.510Z,96828.25
2023-03-30T10:22:36.537Z,96867.56
2023-03-30T10:25:10.138Z,96903.69
2023-03-30T10:27:39.650Z,96908.19
2023-03-30T10:30:10.904Z,96928.06
2023-03-30T10:32:38.823Z,96950.41
2023-03-30T10:35:10.203Z,96975.06
2023-03-30T10:37:40.898Z,96985.75
2023-03-30T10:40:12.828Z,96995.16
2023-03-30T10:42:40.935Z,97005.31
2023-03-30T10:45:15.333Z,97005.13
2023-03-30T10:47:50.500Z,97007.38
2023-03-30T10:50:24.324Z,97007.41
2023-03-30T10:53:00.180Z,97020.97
2023-03-30T10:55:31.824Z,97025.69
2023-03-30T10:58:03.579Z,97035.69
2023-03-30T11:00:37.309Z,97042.81
2023-03-30T11:03:08.168Z,97030.50
2023-03-30T11:05:36.758Z,97018.28
2023-03-30T11:08:07.647Z,97002.22
2023-03-30T11:10:37.902Z,96997.94
2023-03-30T11:13:07.178Z,96984.13
2023-03-30T11:15:37.353Z,96979.06
2023-03-30T11:18:08.105Z,96973.38
2023-03-30T11:20:38.497Z,96959.19
2023-03-30T11:23:15.180Z,96956.13
2023-03-30T11:25:54.243Z,96949.03
2023-03-30T11:28:36.862Z,96934.63
2023-03-30T11:31:10.015Z,96915.69
2023-03-30T11:33:39.415Z,96907.94
2023-03-30T11:36:10.189Z,96891.66
2023-03-30T11:38:42.559Z,96868.06
2023-03-30T11:41:13.060Z,96853.41
2023-03-30T11:43:41.244Z,96828.13
2023-03-30T11:46:10.105Z,96808.16
2023-03-30T11:48:46.922Z,96789.75
2023-03-30T11:51:21.687Z,96771.28
2023-03-30T11:53:54.062Z,96758.09
2023-03-30T11:56:26.697Z,96758.03
2023-03-30T11:59:04.637Z,96750.94
2023-03-30T12:01:40.527Z,96723.19
2023-03-30T12:04:09.603Z,96718.59
2023-03-30T12:06:39.741Z,96700.88
2023-03-30T12:09:33.851Z,96691.28
2023-03-30T12:12:10.713Z,96670.38
2023-03-30T12:14:56.835Z,96654.13
2023-03-30T12:17:35.903Z,96635.66
2023-03-30T12:20:06.915Z,96609.22
2023-03-30T12:22:37.151Z,96597.34
2023-03-30T12:25:15.097Z,96574.50
2023-03-30T12:27:59.702Z,96562.38
2023-03-30T12:30:28.815Z,96555.91
2023-03-30T12:33:00.531Z,96539.44
2023-03-30T12:36:01.722Z,96541.03
2023-03-30T12:38:38.340Z,96516.41
2023-03-30T12:41:14.438Z,96513.44
2023-03-30T12:43:48.874Z,96525.56
2023-03-30T12:46:26.405Z,96526.00
2023-03-30T12:48:55.686Z,96526.19
2023-03-30T12:51:27.655Z,96529.72
2023-03-30T12:53:58.210Z,96524.41
2023-03-30T12:56:31.432Z,96519.69
2023-03-30T12:59:01.942Z,96518.59
2023-03-30T13:01:35.954Z,96504.47
2023-03-30T13:04:03.716Z,96511.19
2023-03-30T13:06:31.791Z,96508.09
2023-03-30T13:09:05.020Z,96508.31
2023-03-30T13:11:44.595Z,96492.47
2023-03-30T13:14:26.139Z,96496.00
2023-03-30T13:17:12.780Z,96508.38
2023-03-30T13:19:44.414Z,96507.25
2023-03-30T13:22:19.502Z,96499.16
2023-03-30T13:24:47.538Z,96494.81
2023-03-30T13:27:23.343Z,96498.22
2023-03-30T13:29:51.588Z,96489.75
2023-03-30T13:32:19.475Z,96480.44
2023-03-30T13:35:06.835Z,96485.22
2023-03-30T13:37:40.600Z,96477.28
2023-03-30T13:40:09.268Z,96467.88
2023-03-30T13:42:43.636Z,96470.69
2023-03-30T13:45:16.301Z,96471.34
2023-03-30T13:47:47.918Z,96468.94
2023-03-30T13:50:17.253Z,96461.22
2023-03-30T13:52:45.573Z,96459.81
2023-03-30T13:55:16.008Z,96455.09
2023-03-30T13:57:45.282Z,96460.19
2023-03-30T14:00:22.315Z,96462.50
2023-03-30T14:02:50.421Z,96458.00
2023-03-30T14:05:20.548Z,96440.13
2023-03-30T14:07:49.025Z,96444.16
2023-03-30T14:10:16.886Z,96451.75
2023-03-30T14:12:45.830Z,96437.50
2023-03-30T14:15:16.321Z,96461.84
2023-03-30T14:17:46.709Z,96455.28
2023-03-30T14:20:16.368Z,96469.91
2023-03-30T14:22:45.131Z,96466.75
2023-03-30T14:25:22.520Z,96448.69
2023-03-30T14:27:51.418Z,96466.59
2023-03-30T14:30:19.500Z,96477.00
2023-03-30T14:32:49.278Z,96467.72
2023-03-30T14:35:17.138Z,96458.63
2023-03-30T14:37:51.627Z,96471.13
2023-03-30T14:40:19.855Z,96467.78
2023-03-30T14:42:47.522Z,96482.59
2023-03-30T14:45:18.231Z,96477.03
2023-03-30T14:47:46.735Z,96479.03
2023-03-30T14:50:15.214Z,96473.78
2023-03-30T14:52:43.031Z,96462.31
2023-03-30T14:55:15.430Z,96471.41
2023-03-30T14:57:46.364Z,96466.28
2023-03-30T15:00:21.045Z,96456.94
2023-03-30T15:02:51.264Z,96457.88
2023-03-30T15:05:19.108Z,96449.06
2023-03-30T15:07:47.575Z,96453.34
2023-03-30T15:10:22.534Z,96448.66
2023-03-30T15:12:50.843Z,96551.31
2023-03-30T15:15:26.761Z,96551.34
2023-03-30T15:17:55.861Z,96542.38
2023-03-30T15:20:24.289Z,96502.16
2023-03-30T15:22:51.942Z,96489.59
2023-03-30T15:25:20.032Z,96496.66
2023-03-30T15:27:49.231Z,96504.75
2023-03-30T15:30:20.547Z,96510.00
2023-03-30T15:32:48.132Z,96523.97
2023-03-30T15:35:20.848Z,96534.28
2023-03-30T15:37:53.302Z,96562.59
2023-03-30T15:40:28.392Z,96579.28
2023-03-30T15:43:10.896Z,96617.72
2023-03-30T15:45:38.605Z,96672.91
2023-03-30T15:48:07.075Z,96676.13
2023-03-30T15:50:36.537Z,96700.78
2023-03-30T15:53:04.129Z,96718.59
2023-03-30T15:55:31.681Z,96732.69
2023-03-30T15:57:59.505Z,96752.94
2023-03-30T16:00:28.346Z,96772.25
2023-03-30T16:02:57.856Z,96765.81
2023-03-30T16:05:26.057Z,96778.75
2023-03-30T16:07:55.035Z,96792.31
2023-03-30T16:10:24.622Z,96791.19
2023-03-30T16:12:52.780Z,96775.53
2023-03-30T16:15:20.789Z,96793.84
2023-03-30T16:17:48.376Z,96821.03
2023-03-30T16:20:16.991Z,96834.19
2023-03-30T16:22:44.583Z,96859.28
2023-03-30T16:25:13.498Z,96874.09
2023-03-30T16:27:41.044Z,96883.53
2023-03-30T16:30:14.816Z,96879.63
2023-03-30T16:32:42.415Z,96887.00
2023-03-30T16:35:10.201Z,96903.16
2023-03-30T16:37:37.848Z,96897.22
2023-03-30T16:40:10.832Z,96896.22
2023-03-30T16:42:39.792Z,96906.28
2023-03-30T16:45:08.383Z,96905.47
2023-03-30T16:47:38.093Z,96911.44
2023-03-30T16:50:11.793Z,96911.78
2023-03-30T16:52:39.426Z,96919.50
2023-03-30T16:55:07.153Z,96941.19
2023-03-30T16:57:34.727Z,96933.78
2023-03-30T17:00:05.673Z,96936.38
2023-03-30T17:02:33.220Z,96944.00
2023-03-30T17:05:00.793Z,96950.25
2023-03-30T17:07:28.408Z,96958.72
2023-03-30T17:09:56.185Z,96967.78
2023-03-30T17:12:23.971Z,96963.28
2023-03-30T17:14:51.549Z,96975.69
2023-03-30T17:17:21.577Z,96977.72
2023-03-30T17:19:49.105Z,96979.63
2023-03-30T17:22:16.660Z,96983.19
2023-03-30T17:24:44.239Z,96983.13
2023-03-30T17:27:11.828Z,96990.34
2023-03-30T17:29:40.396Z,96991.25
2023-03-30T17:32:11.947Z,97006.41
2023-03-30T17:34:40.965Z,96988.56
2023-03-30T17:37:09.757Z,96987.34
2023-03-30T17:39:37.343Z,96990.19
2023-03-30T17:42:05.094Z,96995.94
2023-03-30T17:44:32.926Z,97000.22
2023-03-30T17:47:01.896Z,96999.09
2023-03-30T17:49:29.469Z,96995.56
2023-03-30T17:51:58.378Z,97004.09
2023-03-30T17:54:25.997Z,96989.25
2023-03-30T17:56:54.331Z,96990.88
2023-03-30T18:03:08.773Z,96991.22
2023-03-30T18:05:36.263Z,97004.13
2023-03-30T18:08:05.284Z,97003.03
2023-03-30T18:10:34.257Z,97006.84
2023-03-30T18:13:01.799Z,97020.34
2023-03-30T18:15:29.302Z,97013.19
2023-03-30T18:17:57.191Z,97021.88
2023-03-30T18:20:25.326Z,97026.44
2023-03-30T18:22:52.887Z,97016.38
2023-03-30T18:25:31.502Z,97026.34
2023-03-30T18:28:00.370Z,97023.97
2023-03-30T18:30:28.708Z,97030.13
2023-03-30T18:32:56.211Z,97030.59
2023-03-30T18:35:24.073Z,97027.13
2023-03-30T18:37:53.840Z,97037.50
2023-03-30T18:40:24.397Z,97043.28
2023-03-30T18:42:51.965Z,97047.78
2023-03-30T18:45:20.148Z,97052.41
2023-03-30T18:47:47.838Z,97055.88
2023-03-30T18:50:22.499Z,97047.56
2023-03-30T18:52:50.124Z,97050.03
2023-03-30T18:55:18.016Z,97047.41
2023-03-30T18:57:47.089Z,97056.38
2023-03-30T19:00:19.917Z,97049.28
2023-03-30T19:02:47.881Z,97045.13
2023-03-30T19:05:16.514Z,97056.16
2023-03-30T19:07:44.497Z,97055.84
2023-03-30T19:10:12.241Z,97051.75
2023-03-30T19:12:45.699Z,97057.03
2023-03-30T19:15:18.600Z,97058.47
2023-03-30T19:17:46.359Z,97081.97
2023-03-30T19:20:14.212Z,97077.78
2023-03-30T19:22:41.745Z,97076.34
2023-03-30T19:25:10.062Z,97074.09
2023-03-30T19:27:37.771Z,97085.44
2023-03-30T19:30:06.158Z,97085.97
2023-03-30T19:32:35.381Z,97086.34
2023-03-30T19:35:03.037Z,97086.78
2023-03-30T19:37:30.599Z,97081.34
2023-03-30T19:39:58.126Z,97078.28
2023-03-30T19:42:26.631Z,97091.50
2023-03-30T19:44:54.527Z,97086.16
2023-03-30T19:47:24.388Z,97082.88
2023-03-30T19:49:53.314Z,97084.59
2023-03-30T19:52:21.009Z,97084.25
2023-03-30T19:54:48.641Z,97090.47
2023-03-30T19:57:16.752Z,97099.56
2023-03-30T19:59:44.577Z,97103.19
2023-03-30T20:02:12.235Z,97108.44
2023-03-30T20:04:39.849Z,97101.25
2023-03-30T20:07:08.783Z,97107.50
2023-03-30T20:09:36.314Z,97111.00
2023-03-30T20:12:04.945Z,97113.09
2023-03-30T20:14:33.351Z,97104.59
2023-03-30T20:17:02.195Z,97108.31
2023-03-30T20:19:30.066Z,97103.88
2023-03-30T20:21:57.842Z,97112.84
2023-03-30T20:24:26.849Z,97112.28
2023-03-30T20:26:54.933Z,97119.56
2023-03-30T20:29:22.459Z,97120.94
2023-03-30T20:31:50.057Z,97135.84
2023-03-30T20:34:18.603Z,97134.00
2023-03-30T20:36:50.058Z,97133.63
2023-03-30T20:39:17.889Z,97132.56
2023-03-30T20:41:47.009Z,97138.28
2023-03-30T20:44:18.088Z,97142.91
2023-03-30T20:46:45.742Z,97142.69
2023-03-30T20:49:13.968Z,97142.91
2023-03-30T20:51:43.287Z,97147.56
2023-03-30T20:54:11.022Z,97145.28
2023-03-30T20:56:38.591Z,97142.69
2023-03-30T20:59:07.513Z,97140.84
2023-03-30T21:01:38.964Z,97140.38
2023-03-30T21:04:06.792Z,97131.13
2023-03-30T21:06:34.363Z,97133.94
2023-03-30T21:09:02.603Z,97130.97
2023-03-30T21:11:31.765Z,97140.13
2023-03-30T21:13:59.314Z,97133.16
2023-03-30T21:16:28.512Z,97132.28
2023-03-30T21:18:56.273Z,97133.00
2023-03-30T21:21:23.835Z,97119.84
2023-03-30T21:23:51.792Z,97116.13
2023-03-30T21:26:19.401Z,97121.13
2023-03-30T21:28:46.924Z,97114.66
2023-03-30T21:31:16.368Z,97097.28
2023-03-30T21:33:45.667Z,97105.25
2023-03-30T21:36:13.451Z,97095.72
2023-03-30T21:38:41.047Z,97098.56
2023-03-30T21:41:08.955Z,97110.72
2023-03-30T21:43:36.882Z,97102.44
2023-03-30T21:46:05.178Z,97100.72
2023-03-30T21:48:33.407Z,97096.47
2023-03-30T21:51:02.602Z,97082.78
2023-03-30T21:53:30.433Z,97087.59
2023-03-30T21:55:58.230Z,97091.03
2023-03-30T21:58:26.085Z,97095.94
2023-03-30T22:01:01.294Z,97089.31
2023-03-30T22:03:38.764Z,97090.91
2023-03-30T22:06:08.400Z,97096.81
2023-03-30T22:08:36.150Z,97083.13
2023-03-30T22:11:04.237Z,97083.25
2023-03-30T22:13:31.892Z,97090.38
2023-03-30T22:15:59.545Z,97086.03
2023-03-30T22:18:27.112Z,97081.69
2023-03-30T22:20:54.627Z,97076.59
2023-03-30T22:23:23.572Z,97064.84
2023-03-30T22:25:51.280Z,97059.28
2023-03-30T22:28:18.933Z,97058.19
2023-03-30T22:30:46.644Z,97053.13
2023-03-30T22:33:14.238Z,97055.09
2023-03-30T22:35:41.968Z,97057.22
2023-03-30T22:38:09.547Z,97053.78
2023-03-30T22:40:39.516Z,97057.75
2023-03-30T22:43:07.183Z,97051.69
2023-03-30T22:45:34.725Z,97041.28
2023-03-30T22:48:02.403Z,97052.47
2023-03-30T22:50:29.913Z,97051.34
2023-03-30T22:52:57.503Z,97039.44
2023-03-30T22:55:25.060Z,97038.47
2023-03-30T22:57:54.014Z,97044.28
2023-03-30T23:00:21.943Z,97043.16
2023-03-30T23:02:49.857Z,97041.19
2023-03-30T23:05:17.530Z,97028.06
2023-03-30T23:07:46.056Z,97037.13
2023-03-30T23:10:15.314Z,97035.81
2023-03-30T23:12:42.995Z,97026.22
2023-03-30T23:15:12.110Z,97028.41
2023-03-30T23:17:39.778Z,97031.47
2023-03-30T23:20:10.033Z,97029.69
2023-03-30T23:22:37.901Z,97024.59
2023-03-30T23:25:05.943Z,97013.94
2023-03-30T23:27:33.509Z,97006.31
2023-03-30T23:30:01.089Z,97012.63
2023-03-30T23:32:29.985Z,97009.13
2023-03-30T23:34:57.561Z,97004.59
2023-03-30T23:37:25.138Z,97005.75
2023-03-30T23:39:52.759Z,97002.88
2023-03-30T23:42:21.304Z,97004.75
2023-03-30T23:44:48.827Z,96999.41
2023-03-30T23:47:17.255Z,97006.09
2023-03-30T23:49:46.177Z,97003.75
2023-03-30T23:52:13.807Z,97005.38
2023-03-30T23:54:41.324Z,97006.66
2023-03-30T23:57:08.956Z,96998.78
2023-03-30T23:59:36.556Z,96997.16
